<?xml version="1.0" encoding="UTF-8"?><gpx xmlns="http://www.topografix.com/GPX/1/1" version="1.1" creator="iOrient"><trk><name>Тренирвка к рогейну "Банный день"</name><trkseg><trkpt lat="56.8231540" lon="53.1317276"><time>2024-02-04T07:13:49.047</time></trkpt><trkpt lat="56.8231625" lon="53.1317893"><time>2024-02-04T07:13:52.987</time></trkpt><trkpt lat="56.8233582" lon="53.1327722"><time>2024-02-04T07:15:53.417</time></trkpt><trkpt lat="56.8233582" lon="53.1327722"><time>2024-02-04T07:15:53.447</time></trkpt><trkpt lat="56.8233298" lon="53.1328380"><time>2024-02-04T07:15:55</time></trkpt><trkpt lat="56.8233245" lon="53.1328652"><time>2024-02-04T07:15:56.127</time></trkpt><trkpt lat="56.8233727" lon="53.1328918"><time>2024-02-04T07:16:06.990</time></trkpt><trkpt lat="56.8234354" lon="53.1328952"><time>2024-02-04T07:16:09.977</time></trkpt><trkpt lat="56.8234971" lon="53.1328715"><time>2024-02-04T07:16:11.987</time></trkpt><trkpt lat="56.8235533" lon="53.1328269"><time>2024-02-04T07:16:13.980</time></trkpt><trkpt lat="56.8236064" lon="53.1327807"><time>2024-02-04T07:16:15.977</time></trkpt><trkpt lat="56.8236551" lon="53.1327780"><time>2024-02-04T07:16:18.040</time></trkpt><trkpt lat="56.8237098" lon="53.1327820"><time>2024-02-04T07:16:19.987</time></trkpt><trkpt lat="56.8237556" lon="53.1327646"><time>2024-02-04T07:16:21.980</time></trkpt><trkpt lat="56.8238206" lon="53.1327375"><time>2024-02-04T07:16:25.030</time></trkpt><trkpt lat="56.8238756" lon="53.1327507"><time>2024-02-04T07:16:26.143</time></trkpt><trkpt lat="56.8239251" lon="53.1327513"><time>2024-02-04T07:16:27.980</time></trkpt><trkpt lat="56.8239803" lon="53.1327538"><time>2024-02-04T07:16:29.973</time></trkpt><trkpt lat="56.8240252" lon="53.1327438"><time>2024-02-04T07:16:31.983</time></trkpt><trkpt lat="56.8240907" lon="53.1327797"><time>2024-02-04T07:16:35.067</time></trkpt><trkpt lat="56.8241283" lon="53.1327141"><time>2024-02-04T07:16:38.980</time></trkpt><trkpt lat="56.8241911" lon="53.1326912"><time>2024-02-04T07:16:41.973</time></trkpt><trkpt lat="56.8242359" lon="53.1327082"><time>2024-02-04T07:16:43.990</time></trkpt><trkpt lat="56.8242841" lon="53.1327468"><time>2024-02-04T07:16:46.053</time></trkpt><trkpt lat="56.8243460" lon="53.1327478"><time>2024-02-04T07:16:49.987</time></trkpt><trkpt lat="56.8244043" lon="53.1327913"><time>2024-02-04T07:16:52.983</time></trkpt><trkpt lat="56.8244538" lon="53.1328399"><time>2024-02-04T07:16:55.987</time></trkpt><trkpt lat="56.8272285" lon="53.1338055"><time>2024-02-04T07:19:40.040</time></trkpt><trkpt lat="56.8272285" lon="53.1338055"><time>2024-02-04T07:19:40.077</time></trkpt><trkpt lat="56.8272375" lon="53.1337805"><time>2024-02-04T07:19:41.217</time></trkpt><trkpt lat="56.8272484" lon="53.1337577"><time>2024-02-04T07:19:42.340</time></trkpt><trkpt lat="56.8272890" lon="53.1337173"><time>2024-02-04T07:19:45.977</time></trkpt><trkpt lat="56.8273353" lon="53.1337194"><time>2024-02-04T07:19:50.060</time></trkpt><trkpt lat="56.8273817" lon="53.1337166"><time>2024-02-04T07:19:55.977</time></trkpt><trkpt lat="56.8274248" lon="53.1336820"><time>2024-02-04T07:20:00.970</time></trkpt><trkpt lat="56.8274739" lon="53.1336331"><time>2024-02-04T07:20:05.050</time></trkpt><trkpt lat="56.8275237" lon="53.1336439"><time>2024-02-04T07:20:07.063</time></trkpt><trkpt lat="56.8275736" lon="53.1336421"><time>2024-02-04T07:20:08.980</time></trkpt><trkpt lat="56.8276199" lon="53.1336217"><time>2024-02-04T07:20:11.007</time></trkpt><trkpt lat="56.8276600" lon="53.1335841"><time>2024-02-04T07:20:12.987</time></trkpt><trkpt lat="56.8276852" lon="53.1334893"><time>2024-02-04T07:20:15.993</time></trkpt><trkpt lat="56.8277184" lon="53.1334027"><time>2024-02-04T07:20:18.990</time></trkpt><trkpt lat="56.8277458" lon="53.1333183"><time>2024-02-04T07:20:21.977</time></trkpt><trkpt lat="56.8277799" lon="53.1333750"><time>2024-02-04T07:20:50.093</time></trkpt><trkpt lat="56.8278249" lon="53.1334312"><time>2024-02-04T07:20:53.027</time></trkpt><trkpt lat="56.8278697" lon="53.1335301"><time>2024-02-04T07:20:55.960</time></trkpt><trkpt lat="56.8278956" lon="53.1335994"><time>2024-02-04T07:20:58.063</time></trkpt><trkpt lat="56.8279220" lon="53.1337096"><time>2024-02-04T07:21:01.033</time></trkpt><trkpt lat="56.8279281" lon="53.1337969"><time>2024-02-04T07:21:02.987</time></trkpt><trkpt lat="56.8279491" lon="53.1338995"><time>2024-02-04T07:21:05.043</time></trkpt><trkpt lat="56.8279663" lon="53.1340011"><time>2024-02-04T07:21:07.017</time></trkpt><trkpt lat="56.8279791" lon="53.1340953"><time>2024-02-04T07:21:09.037</time></trkpt><trkpt lat="56.8279901" lon="53.1342213"><time>2024-02-04T07:21:11.047</time></trkpt><trkpt lat="56.8279979" lon="53.1343415"><time>2024-02-04T07:21:12.990</time></trkpt><trkpt lat="56.8280034" lon="53.1344413"><time>2024-02-04T07:21:15.043</time></trkpt><trkpt lat="56.8280309" lon="53.1345313"><time>2024-02-04T07:21:18.033</time></trkpt><trkpt lat="56.8305333" lon="53.1383347"><time>2024-02-04T07:24:34.980</time></trkpt><trkpt lat="56.8305333" lon="53.1383347"><time>2024-02-04T07:24:35.013</time></trkpt><trkpt lat="56.8305692" lon="53.1385285"><time>2024-02-04T07:24:36.173</time></trkpt><trkpt lat="56.8305651" lon="53.1384863"><time>2024-02-04T07:24:37.313</time></trkpt><trkpt lat="56.8305801" lon="53.1385661"><time>2024-02-04T07:24:38.970</time></trkpt><trkpt lat="56.8305298" lon="53.1385706"><time>2024-02-04T07:24:45.977</time></trkpt><trkpt lat="56.8304780" lon="53.1385485"><time>2024-02-04T07:24:48.980</time></trkpt><trkpt lat="56.8304353" lon="53.1384861"><time>2024-02-04T07:24:50.993</time></trkpt><trkpt lat="56.8304183" lon="53.1383931"><time>2024-02-04T07:24:53.037</time></trkpt><trkpt lat="56.8304026" lon="53.1383096"><time>2024-02-04T07:24:54.983</time></trkpt><trkpt lat="56.8303693" lon="53.1382185"><time>2024-02-04T07:24:57.980</time></trkpt><trkpt lat="56.8303329" lon="53.1381623"><time>2024-02-04T07:24:59.980</time></trkpt><trkpt lat="56.8302964" lon="53.1380961"><time>2024-02-04T07:25:02.967</time></trkpt><trkpt lat="56.8302497" lon="53.1380155"><time>2024-02-04T07:25:05.977</time></trkpt><trkpt lat="56.8302274" lon="53.1379387"><time>2024-02-04T07:25:07.993</time></trkpt><trkpt lat="56.8302278" lon="53.1378535"><time>2024-02-04T07:25:09.977</time></trkpt><trkpt lat="56.8302255" lon="53.1377658"><time>2024-02-04T07:25:11.983</time></trkpt><trkpt lat="56.8302237" lon="53.1376780"><time>2024-02-04T07:25:14.983</time></trkpt><trkpt lat="56.8302171" lon="53.1375486"><time>2024-02-04T07:25:17.970</time></trkpt><trkpt lat="56.8302108" lon="53.1374502"><time>2024-02-04T07:25:19.977</time></trkpt><trkpt lat="56.8301985" lon="53.1373388"><time>2024-02-04T07:25:21.987</time></trkpt><trkpt lat="56.8301918" lon="53.1372500"><time>2024-02-04T07:25:23.990</time></trkpt><trkpt lat="56.8301749" lon="53.1371156"><time>2024-02-04T07:25:26.980</time></trkpt><trkpt lat="56.8301685" lon="53.1369872"><time>2024-02-04T07:25:28.983</time></trkpt><trkpt lat="56.8301571" lon="53.1368867"><time>2024-02-04T07:25:30.983</time></trkpt><trkpt lat="56.8301460" lon="53.1367924"><time>2024-02-04T07:25:33.987</time></trkpt><trkpt lat="56.8301434" lon="53.1368836"><time>2024-02-04T07:25:40.993</time></trkpt><trkpt lat="56.8304897" lon="53.1367696"><time>2024-02-04T07:26:19.270</time></trkpt><trkpt lat="56.8301430" lon="53.1367975"><time>2024-02-04T07:26:20.970</time></trkpt><trkpt lat="56.8301573" lon="53.1366871"><time>2024-02-04T07:26:55.047</time></trkpt><trkpt lat="56.8301569" lon="53.1365730"><time>2024-02-04T07:26:57.017</time></trkpt><trkpt lat="56.8301392" lon="53.1364434"><time>2024-02-04T07:26:59.017</time></trkpt><trkpt lat="56.8301207" lon="53.1363094"><time>2024-02-04T07:27:01.067</time></trkpt><trkpt lat="56.8301111" lon="53.1362012"><time>2024-02-04T07:27:03.040</time></trkpt><trkpt lat="56.8300865" lon="53.1361016"><time>2024-02-04T07:27:04.967</time></trkpt><trkpt lat="56.8300663" lon="53.1359856"><time>2024-02-04T07:27:07.023</time></trkpt><trkpt lat="56.8300602" lon="53.1358884"><time>2024-02-04T07:27:09.033</time></trkpt><trkpt lat="56.8300611" lon="53.1357802"><time>2024-02-04T07:27:11.027</time></trkpt><trkpt lat="56.8300570" lon="53.1356543"><time>2024-02-04T07:27:14.040</time></trkpt><trkpt lat="56.8300525" lon="53.1355592"><time>2024-02-04T07:27:16.013</time></trkpt><trkpt lat="56.8300530" lon="53.1354589"><time>2024-02-04T07:27:18.053</time></trkpt><trkpt lat="56.8300508" lon="53.1353396"><time>2024-02-04T07:27:20.067</time></trkpt><trkpt lat="56.8300486" lon="53.1352454"><time>2024-02-04T07:27:22.030</time></trkpt><trkpt lat="56.8300418" lon="53.1351395"><time>2024-02-04T07:27:24.037</time></trkpt><trkpt lat="56.8300335" lon="53.1350329"><time>2024-02-04T07:27:26.040</time></trkpt><trkpt lat="56.8300315" lon="53.1349335"><time>2024-02-04T07:27:28.003</time></trkpt><trkpt lat="56.8300304" lon="53.1348286"><time>2024-02-04T07:27:30.040</time></trkpt><trkpt lat="56.8300303" lon="53.1347223"><time>2024-02-04T07:27:32.040</time></trkpt><trkpt lat="56.8300313" lon="53.1346187"><time>2024-02-04T07:27:35.040</time></trkpt><trkpt lat="56.8300336" lon="53.1345015"><time>2024-02-04T07:27:38.030</time></trkpt><trkpt lat="56.8300344" lon="53.1344066"><time>2024-02-04T07:27:40.977</time></trkpt><trkpt lat="56.8300217" lon="53.1343000"><time>2024-02-04T07:27:44.027</time></trkpt><trkpt lat="56.8300141" lon="53.1342083"><time>2024-02-04T07:27:46.023</time></trkpt><trkpt lat="56.8299963" lon="53.1341066"><time>2024-02-04T07:27:49.037</time></trkpt><trkpt lat="56.8299906" lon="53.1340014"><time>2024-02-04T07:27:51.987</time></trkpt><trkpt lat="56.8299682" lon="53.1339167"><time>2024-02-04T07:27:55.047</time></trkpt><trkpt lat="56.8299668" lon="53.1338133"><time>2024-02-04T07:27:57.017</time></trkpt><trkpt lat="56.8299667" lon="53.1337160"><time>2024-02-04T07:27:59.040</time></trkpt><trkpt lat="56.8299636" lon="53.1336050"><time>2024-02-04T07:28:01.050</time></trkpt><trkpt lat="56.8299602" lon="53.1335052"><time>2024-02-04T07:28:03.030</time></trkpt><trkpt lat="56.8299463" lon="53.1333975"><time>2024-02-04T07:28:06.050</time></trkpt><trkpt lat="56.8299433" lon="53.1332789"><time>2024-02-04T07:28:09.050</time></trkpt><trkpt lat="56.8307027" lon="53.1312404"><time>2024-02-04T07:29:24.980</time></trkpt><trkpt lat="56.8306501" lon="53.1311236"><time>2024-02-04T07:29:26.110</time></trkpt><trkpt lat="56.8307063" lon="53.1311175"><time>2024-02-04T07:29:27.263</time></trkpt><trkpt lat="56.8306729" lon="53.1310469"><time>2024-02-04T07:29:28.420</time></trkpt><trkpt lat="56.8306558" lon="53.1310029"><time>2024-02-04T07:29:29.540</time></trkpt><trkpt lat="56.8306323" lon="53.1309285"><time>2024-02-04T07:29:34.977</time></trkpt><trkpt lat="56.8306322" lon="53.1308329"><time>2024-02-04T07:29:38.017</time></trkpt><trkpt lat="56.8305687" lon="53.1307994"><time>2024-02-04T07:29:40.963</time></trkpt><trkpt lat="56.8305209" lon="53.1307944"><time>2024-02-04T07:29:42.960</time></trkpt><trkpt lat="56.8304722" lon="53.1307781"><time>2024-02-04T07:29:44.977</time></trkpt><trkpt lat="56.8304171" lon="53.1307843"><time>2024-02-04T07:29:48.963</time></trkpt><trkpt lat="56.8303652" lon="53.1307980"><time>2024-02-04T07:29:52.067</time></trkpt><trkpt lat="56.8303136" lon="53.1308100"><time>2024-02-04T07:29:54.047</time></trkpt><trkpt lat="56.8302637" lon="53.1308061"><time>2024-02-04T07:29:56.077</time></trkpt><trkpt lat="56.8302151" lon="53.1307601"><time>2024-02-04T07:29:58.053</time></trkpt><trkpt lat="56.8301743" lon="53.1306700"><time>2024-02-04T07:30:00.070</time></trkpt><trkpt lat="56.8301440" lon="53.1305748"><time>2024-02-04T07:30:02.047</time></trkpt><trkpt lat="56.8301481" lon="53.1305116"><time>2024-02-04T07:30:03.173</time></trkpt><trkpt lat="56.8301575" lon="53.1304131"><time>2024-02-04T07:30:04.967</time></trkpt><trkpt lat="56.8301345" lon="53.1303041"><time>2024-02-04T07:30:07.050</time></trkpt><trkpt lat="56.8301244" lon="53.1302233"><time>2024-02-04T07:30:09.963</time></trkpt><trkpt lat="56.8301241" lon="53.1301413"><time>2024-02-04T07:30:15.003</time></trkpt><trkpt lat="56.8301241" lon="53.1301413"><time>2024-02-04T07:30:15.030</time></trkpt><trkpt lat="56.8301272" lon="53.1300463"><time>2024-02-04T07:30:22.013</time></trkpt><trkpt lat="56.8301267" lon="53.1300186"><time>2024-02-04T07:30:23.147</time></trkpt><trkpt lat="56.8301232" lon="53.1299244"><time>2024-02-04T07:30:27.973</time></trkpt><trkpt lat="56.8301314" lon="53.1298422"><time>2024-02-04T07:30:34.973</time></trkpt><trkpt lat="56.8301334" lon="53.1299317"><time>2024-02-04T07:30:47.960</time></trkpt><trkpt lat="56.8301354" lon="53.1300380"><time>2024-02-04T07:30:51.067</time></trkpt><trkpt lat="56.8301807" lon="53.1301084"><time>2024-02-04T07:30:57.050</time></trkpt><trkpt lat="56.8302492" lon="53.1301219"><time>2024-02-04T07:31:00.063</time></trkpt><trkpt lat="56.8302950" lon="53.1301183"><time>2024-02-04T07:31:02.060</time></trkpt><trkpt lat="56.8303582" lon="53.1301373"><time>2024-02-04T07:31:04.977</time></trkpt><trkpt lat="56.8304096" lon="53.1301632"><time>2024-02-04T07:31:06.970</time></trkpt><trkpt lat="56.8304519" lon="53.1302050"><time>2024-02-04T07:31:08.963</time></trkpt><trkpt lat="56.8305025" lon="53.1302332"><time>2024-02-04T07:31:10.983</time></trkpt><trkpt lat="56.8305584" lon="53.1302907"><time>2024-02-04T07:31:12.983</time></trkpt><trkpt lat="56.8306010" lon="53.1303368"><time>2024-02-04T07:31:14.967</time></trkpt><trkpt lat="56.8306082" lon="53.1304256"><time>2024-02-04T07:31:17.947</time></trkpt><trkpt lat="56.8306126" lon="53.1305323"><time>2024-02-04T07:31:21.063</time></trkpt><trkpt lat="56.8305978" lon="53.1306226"><time>2024-02-04T07:31:23.073</time></trkpt><trkpt lat="56.8305901" lon="53.1307073"><time>2024-02-04T07:31:25.047</time></trkpt><trkpt lat="56.8305959" lon="53.1308390"><time>2024-02-04T07:31:28.057</time></trkpt><trkpt lat="56.8306157" lon="53.1309263"><time>2024-02-04T07:31:30.040</time></trkpt><trkpt lat="56.8306538" lon="53.1309770"><time>2024-02-04T07:31:32.043</time></trkpt><trkpt lat="56.8307167" lon="53.1309931"><time>2024-02-04T07:31:35.030</time></trkpt><trkpt lat="56.8307636" lon="53.1309757"><time>2024-02-04T07:31:37.073</time></trkpt><trkpt lat="56.8308121" lon="53.1309592"><time>2024-02-04T07:31:39.037</time></trkpt><trkpt lat="56.8308661" lon="53.1309412"><time>2024-02-04T07:31:41.030</time></trkpt><trkpt lat="56.8309191" lon="53.1309084"><time>2024-02-04T07:31:43.057</time></trkpt><trkpt lat="56.8309719" lon="53.1308908"><time>2024-02-04T07:31:45.040</time></trkpt><trkpt lat="56.8310172" lon="53.1308584"><time>2024-02-04T07:31:47.067</time></trkpt><trkpt lat="56.8310694" lon="53.1308442"><time>2024-02-04T07:31:48.993</time></trkpt><trkpt lat="56.8311217" lon="53.1308301"><time>2024-02-04T07:31:50.987</time></trkpt><trkpt lat="56.8311804" lon="53.1308143"><time>2024-02-04T07:31:53.073</time></trkpt><trkpt lat="56.8312284" lon="53.1307969"><time>2024-02-04T07:31:54.987</time></trkpt><trkpt lat="56.8312858" lon="53.1307610"><time>2024-02-04T07:31:58.013</time></trkpt><trkpt lat="56.8313340" lon="53.1307590"><time>2024-02-04T07:32:00.060</time></trkpt><trkpt lat="56.8313943" lon="53.1307597"><time>2024-02-04T07:32:03.077</time></trkpt><trkpt lat="56.8314584" lon="53.1307477"><time>2024-02-04T07:32:05.997</time></trkpt><trkpt lat="56.8315249" lon="53.1307286"><time>2024-02-04T07:32:09.053</time></trkpt><trkpt lat="56.8315822" lon="53.1306800"><time>2024-02-04T07:32:12.090</time></trkpt><trkpt lat="56.8316347" lon="53.1307279"><time>2024-02-04T07:32:15.117</time></trkpt><trkpt lat="56.8316482" lon="53.1308062"><time>2024-02-04T07:32:17.073</time></trkpt><trkpt lat="56.8316437" lon="53.1309407"><time>2024-02-04T07:32:19</time></trkpt><trkpt lat="56.8316501" lon="53.1310616"><time>2024-02-04T07:32:21.070</time></trkpt><trkpt lat="56.8316636" lon="53.1311692"><time>2024-02-04T07:32:23.090</time></trkpt><trkpt lat="56.8316761" lon="53.1312847"><time>2024-02-04T07:32:25.073</time></trkpt><trkpt lat="56.8316815" lon="53.1314027"><time>2024-02-04T07:32:27.073</time></trkpt><trkpt lat="56.8317015" lon="53.1315149"><time>2024-02-04T07:32:28.993</time></trkpt><trkpt lat="56.8317176" lon="53.1316009"><time>2024-02-04T07:32:31.060</time></trkpt><trkpt lat="56.8317284" lon="53.1316912"><time>2024-02-04T07:32:33.140</time></trkpt><trkpt lat="56.8317907" lon="53.1316471"><time>2024-02-04T07:32:34.337</time></trkpt><trkpt lat="56.8317925" lon="53.1317582"><time>2024-02-04T07:32:36.030</time></trkpt><trkpt lat="56.8318054" lon="53.1318490"><time>2024-02-04T07:32:38.033</time></trkpt><trkpt lat="56.8318052" lon="53.1319350"><time>2024-02-04T07:32:40.043</time></trkpt><trkpt lat="56.8318469" lon="53.1319961"><time>2024-02-04T07:32:43.063</time></trkpt><trkpt lat="56.8319050" lon="53.1320207"><time>2024-02-04T07:32:46.027</time></trkpt><trkpt lat="56.8319491" lon="53.1320605"><time>2024-02-04T07:32:48.047</time></trkpt><trkpt lat="56.8319964" lon="53.1321110"><time>2024-02-04T07:32:50.057</time></trkpt><trkpt lat="56.8320481" lon="53.1321669"><time>2024-02-04T07:32:52.037</time></trkpt><trkpt lat="56.8320978" lon="53.1322179"><time>2024-02-04T07:32:54.070</time></trkpt><trkpt lat="56.8321478" lon="53.1322628"><time>2024-02-04T07:32:56.057</time></trkpt><trkpt lat="56.8321950" lon="53.1323056"><time>2024-02-04T07:32:58.053</time></trkpt><trkpt lat="56.8322372" lon="53.1323484"><time>2024-02-04T07:33:00.027</time></trkpt><trkpt lat="56.8322980" lon="53.1323727"><time>2024-02-04T07:33:03.067</time></trkpt><trkpt lat="56.8335233" lon="53.1326711"><time>2024-02-04T07:33:59.007</time></trkpt><trkpt lat="56.8335233" lon="53.1326711"><time>2024-02-04T07:33:59.063</time></trkpt><trkpt lat="56.8335197" lon="53.1326427"><time>2024-02-04T07:34:00.157</time></trkpt><trkpt lat="56.8335370" lon="53.1326113"><time>2024-02-04T07:34:01.287</time></trkpt><trkpt lat="56.8335267" lon="53.1327062"><time>2024-02-04T07:34:03.973</time></trkpt><trkpt lat="56.8335334" lon="53.1328060"><time>2024-02-04T07:34:07.980</time></trkpt><trkpt lat="56.8335507" lon="53.1328924"><time>2024-02-04T07:34:11.963</time></trkpt><trkpt lat="56.8335991" lon="53.1329164"><time>2024-02-04T07:34:17.987</time></trkpt><trkpt lat="56.8336480" lon="53.1329353"><time>2024-02-04T07:34:22.977</time></trkpt><trkpt lat="56.8336909" lon="53.1329731"><time>2024-02-04T07:34:26.047</time></trkpt><trkpt lat="56.8337454" lon="53.1330084"><time>2024-02-04T07:34:28.987</time></trkpt><trkpt lat="56.8337746" lon="53.1331088"><time>2024-02-04T07:34:32.010</time></trkpt><trkpt lat="56.8337924" lon="53.1332079"><time>2024-02-04T07:34:34.970</time></trkpt><trkpt lat="56.8338157" lon="53.1333075"><time>2024-02-04T07:34:38.013</time></trkpt><trkpt lat="56.8338470" lon="53.1333698"><time>2024-02-04T07:34:39.967</time></trkpt><trkpt lat="56.8338942" lon="53.1334500"><time>2024-02-04T07:34:42.970</time></trkpt><trkpt lat="56.8339286" lon="53.1335119"><time>2024-02-04T07:34:45.967</time></trkpt><trkpt lat="56.8339684" lon="53.1335518"><time>2024-02-04T07:34:48.990</time></trkpt><trkpt lat="56.8340284" lon="53.1335405"><time>2024-02-04T07:34:52.980</time></trkpt><trkpt lat="56.8340839" lon="53.1335593"><time>2024-02-04T07:34:55.977</time></trkpt><trkpt lat="56.8341355" lon="53.1335578"><time>2024-02-04T07:34:57.967</time></trkpt><trkpt lat="56.8341852" lon="53.1335573"><time>2024-02-04T07:34:59.963</time></trkpt><trkpt lat="56.8342356" lon="53.1335583"><time>2024-02-04T07:35:01.963</time></trkpt><trkpt lat="56.8364383" lon="53.1335691"><time>2024-02-04T07:36:32.990</time></trkpt><trkpt lat="56.8364418" lon="53.1335518"><time>2024-02-04T07:36:34.077</time></trkpt><trkpt lat="56.8364876" lon="53.1335388"><time>2024-02-04T07:36:35.960</time></trkpt><trkpt lat="56.8365359" lon="53.1335050"><time>2024-02-04T07:36:38.970</time></trkpt><trkpt lat="56.8365865" lon="53.1334887"><time>2024-02-04T07:36:42.970</time></trkpt><trkpt lat="56.8365865" lon="53.1334887"><time>2024-02-04T07:36:42.993</time></trkpt><trkpt lat="56.8366233" lon="53.1334305"><time>2024-02-04T07:36:47</time></trkpt><trkpt lat="56.8366269" lon="53.1334133"><time>2024-02-04T07:36:48.113</time></trkpt><trkpt lat="56.8366744" lon="53.1334004"><time>2024-02-04T07:37:14.963</time></trkpt><trkpt lat="56.8367259" lon="53.1333824"><time>2024-02-04T07:37:19.963</time></trkpt><trkpt lat="56.8366722" lon="53.1333869"><time>2024-02-04T07:37:25.030</time></trkpt><trkpt lat="56.8365977" lon="53.1333828"><time>2024-02-04T07:37:28.060</time></trkpt><trkpt lat="56.8365322" lon="53.1333825"><time>2024-02-04T07:37:30.043</time></trkpt><trkpt lat="56.8364742" lon="53.1334013"><time>2024-02-04T07:37:32.017</time></trkpt><trkpt lat="56.8364276" lon="53.1334542"><time>2024-02-04T07:37:34.020</time></trkpt><trkpt lat="56.8363945" lon="53.1335346"><time>2024-02-04T07:37:36.013</time></trkpt><trkpt lat="56.8363811" lon="53.1336529"><time>2024-02-04T07:37:38.007</time></trkpt><trkpt lat="56.8363930" lon="53.1337346"><time>2024-02-04T07:37:40.997</time></trkpt><trkpt lat="56.8364130" lon="53.1338448"><time>2024-02-04T07:37:42.993</time></trkpt><trkpt lat="56.8364265" lon="53.1339529"><time>2024-02-04T07:37:46.010</time></trkpt><trkpt lat="56.8364322" lon="53.1340432"><time>2024-02-04T07:37:47.987</time></trkpt><trkpt lat="56.8364420" lon="53.1341268"><time>2024-02-04T07:37:50.003</time></trkpt><trkpt lat="56.8364539" lon="53.1342356"><time>2024-02-04T07:37:53.033</time></trkpt><trkpt lat="56.8364717" lon="53.1343440"><time>2024-02-04T07:37:56</time></trkpt><trkpt lat="56.8364719" lon="53.1344290"><time>2024-02-04T07:37:58.023</time></trkpt><trkpt lat="56.8364770" lon="53.1345524"><time>2024-02-04T07:38:01.007</time></trkpt><trkpt lat="56.8364792" lon="53.1346447"><time>2024-02-04T07:38:03</time></trkpt><trkpt lat="56.8364821" lon="53.1347371"><time>2024-02-04T07:38:05.003</time></trkpt><trkpt lat="56.8364874" lon="53.1348194"><time>2024-02-04T07:38:06.970</time></trkpt><trkpt lat="56.8364946" lon="53.1349127"><time>2024-02-04T07:38:08.970</time></trkpt><trkpt lat="56.8365001" lon="53.1350119"><time>2024-02-04T07:38:11.027</time></trkpt><trkpt lat="56.8364994" lon="53.1351432"><time>2024-02-04T07:38:12.953</time></trkpt><trkpt lat="56.8365017" lon="53.1352457"><time>2024-02-04T07:38:14.967</time></trkpt><trkpt lat="56.8365025" lon="53.1353489"><time>2024-02-04T07:38:17.003</time></trkpt><trkpt lat="56.8365084" lon="53.1354353"><time>2024-02-04T07:38:20.013</time></trkpt><trkpt lat="56.8365225" lon="53.1355286"><time>2024-02-04T07:38:23.017</time></trkpt><trkpt lat="56.8365443" lon="53.1356293"><time>2024-02-04T07:38:25.007</time></trkpt><trkpt lat="56.8365581" lon="53.1357219"><time>2024-02-04T07:38:26.987</time></trkpt><trkpt lat="56.8365682" lon="53.1358225"><time>2024-02-04T07:38:29.007</time></trkpt><trkpt lat="56.8365832" lon="53.1359186"><time>2024-02-04T07:38:31.033</time></trkpt><trkpt lat="56.8365958" lon="53.1360104"><time>2024-02-04T07:38:33.027</time></trkpt><trkpt lat="56.8366021" lon="53.1360916"><time>2024-02-04T07:38:35.010</time></trkpt><trkpt lat="56.8365991" lon="53.1361847"><time>2024-02-04T07:38:37.037</time></trkpt><trkpt lat="56.8365966" lon="53.1362857"><time>2024-02-04T07:38:38.973</time></trkpt><trkpt lat="56.8365996" lon="53.1363836"><time>2024-02-04T07:38:41.030</time></trkpt><trkpt lat="56.8365963" lon="53.1364973"><time>2024-02-04T07:38:43.023</time></trkpt><trkpt lat="56.8365903" lon="53.1366195"><time>2024-02-04T07:38:45.003</time></trkpt><trkpt lat="56.8365982" lon="53.1367312"><time>2024-02-04T07:38:47.017</time></trkpt><trkpt lat="56.8366101" lon="53.1368258"><time>2024-02-04T07:38:49.997</time></trkpt><trkpt lat="56.8366236" lon="53.1369310"><time>2024-02-04T07:38:51.990</time></trkpt><trkpt lat="56.8366467" lon="53.1370161"><time>2024-02-04T07:38:53.997</time></trkpt><trkpt lat="56.8366806" lon="53.1370862"><time>2024-02-04T07:38:55.993</time></trkpt><trkpt lat="56.8367360" lon="53.1371436"><time>2024-02-04T07:38:58.967</time></trkpt><trkpt lat="56.8367470" lon="53.1372292"><time>2024-02-04T07:39:01.003</time></trkpt><trkpt lat="56.8367778" lon="53.1373143"><time>2024-02-04T07:39:04.010</time></trkpt><trkpt lat="56.8367977" lon="53.1374204"><time>2024-02-04T07:39:07.013</time></trkpt><trkpt lat="56.8368238" lon="53.1375141"><time>2024-02-04T07:39:08.963</time></trkpt><trkpt lat="56.8368524" lon="53.1376279"><time>2024-02-04T07:39:11.023</time></trkpt><trkpt lat="56.8368605" lon="53.1377383"><time>2024-02-04T07:39:14.023</time></trkpt><trkpt lat="56.8368791" lon="53.1378244"><time>2024-02-04T07:39:16.007</time></trkpt><trkpt lat="56.8368750" lon="53.1379105"><time>2024-02-04T07:39:18.967</time></trkpt><trkpt lat="56.8375764" lon="53.1432652"><time>2024-02-04T07:41:49.077</time></trkpt><trkpt lat="56.8375764" lon="53.1432652"><time>2024-02-04T07:41:49.117</time></trkpt><trkpt lat="56.8375848" lon="53.1432684"><time>2024-02-04T07:41:50.190</time></trkpt><trkpt lat="56.8374991" lon="53.1430400"><time>2024-02-04T07:41:51.297</time></trkpt><trkpt lat="56.8375500" lon="53.1430559"><time>2024-02-04T07:41:52.967</time></trkpt><trkpt lat="56.8375973" lon="53.1430864"><time>2024-02-04T07:42:05.957</time></trkpt><trkpt lat="56.8375519" lon="53.1430890"><time>2024-02-04T07:42:15.007</time></trkpt><trkpt lat="56.8375360" lon="53.1431710"><time>2024-02-04T07:42:20.013</time></trkpt><trkpt lat="56.8374957" lon="53.1432095"><time>2024-02-04T07:42:26.020</time></trkpt><trkpt lat="56.8374639" lon="53.1432774"><time>2024-02-04T07:42:32.013</time></trkpt><trkpt lat="56.8374549" lon="53.1433726"><time>2024-02-04T07:42:37.050</time></trkpt><trkpt lat="56.8374455" lon="53.1434567"><time>2024-02-04T07:42:42.993</time></trkpt><trkpt lat="56.8374286" lon="53.1435496"><time>2024-02-04T07:42:48.963</time></trkpt><trkpt lat="56.8374129" lon="53.1436344"><time>2024-02-04T07:42:54.967</time></trkpt><trkpt lat="56.8373630" lon="53.1436038"><time>2024-02-04T07:43:00.987</time></trkpt><trkpt lat="56.8373266" lon="53.1435470"><time>2024-02-04T07:43:04.983</time></trkpt><trkpt lat="56.8372837" lon="53.1434614"><time>2024-02-04T07:43:08.007</time></trkpt><trkpt lat="56.8372310" lon="53.1433959"><time>2024-02-04T07:43:10.993</time></trkpt><trkpt lat="56.8371904" lon="53.1433491"><time>2024-02-04T07:43:12.997</time></trkpt><trkpt lat="56.8371492" lon="53.1432965"><time>2024-02-04T07:43:14.993</time></trkpt><trkpt lat="56.8371063" lon="53.1432478"><time>2024-02-04T07:43:16.983</time></trkpt><trkpt lat="56.8370665" lon="53.1432044"><time>2024-02-04T07:43:18.993</time></trkpt><trkpt lat="56.8370258" lon="53.1431499"><time>2024-02-04T07:43:21.013</time></trkpt><trkpt lat="56.8369903" lon="53.1430912"><time>2024-02-04T07:43:22.963</time></trkpt><trkpt lat="56.8369550" lon="53.1430341"><time>2024-02-04T07:43:24.963</time></trkpt><trkpt lat="56.8369218" lon="53.1429703"><time>2024-02-04T07:43:26.967</time></trkpt><trkpt lat="56.8368940" lon="53.1428990"><time>2024-02-04T07:43:28.967</time></trkpt><trkpt lat="56.8368439" lon="53.1428265"><time>2024-02-04T07:43:31.973</time></trkpt><trkpt lat="56.8367884" lon="53.1427641"><time>2024-02-04T07:43:34.993</time></trkpt><trkpt lat="56.8367395" lon="53.1427061"><time>2024-02-04T07:43:37.003</time></trkpt><trkpt lat="56.8366941" lon="53.1426799"><time>2024-02-04T07:43:38.960</time></trkpt><trkpt lat="56.8366458" lon="53.1426614"><time>2024-02-04T07:43:41.017</time></trkpt><trkpt lat="56.8365937" lon="53.1426434"><time>2024-02-04T07:43:42.990</time></trkpt><trkpt lat="56.8365462" lon="53.1426455"><time>2024-02-04T07:43:44.990</time></trkpt><trkpt lat="56.8364988" lon="53.1426432"><time>2024-02-04T07:43:47.007</time></trkpt><trkpt lat="56.8364505" lon="53.1426411"><time>2024-02-04T07:43:48.977</time></trkpt><trkpt lat="56.8343939" lon="53.1399928"><time>2024-02-04T07:47:16.993</time></trkpt><trkpt lat="56.8343939" lon="53.1399928"><time>2024-02-04T07:47:17.023</time></trkpt><trkpt lat="56.8343766" lon="53.1399791"><time>2024-02-04T07:47:18.117</time></trkpt><trkpt lat="56.8343773" lon="53.1399633"><time>2024-02-04T07:47:19.230</time></trkpt><trkpt lat="56.8343538" lon="53.1400472"><time>2024-02-04T07:47:29.967</time></trkpt><trkpt lat="56.8343636" lon="53.1401526"><time>2024-02-04T07:47:34.030</time></trkpt><trkpt lat="56.8343757" lon="53.1402488"><time>2024-02-04T07:47:38.037</time></trkpt><trkpt lat="56.8343858" lon="53.1403325"><time>2024-02-04T07:47:41</time></trkpt><trkpt lat="56.8343890" lon="53.1404168"><time>2024-02-04T07:47:43.997</time></trkpt><trkpt lat="56.8343876" lon="53.1405114"><time>2024-02-04T07:47:47.033</time></trkpt><trkpt lat="56.8343920" lon="53.1406043"><time>2024-02-04T07:47:50.030</time></trkpt><trkpt lat="56.8343927" lon="53.1406941"><time>2024-02-04T07:47:53.027</time></trkpt><trkpt lat="56.8343764" lon="53.1407895"><time>2024-02-04T07:47:56.040</time></trkpt><trkpt lat="56.8343385" lon="53.1408793"><time>2024-02-04T07:47:59.037</time></trkpt><trkpt lat="56.8343040" lon="53.1409453"><time>2024-02-04T07:48:00.993</time></trkpt><trkpt lat="56.8342647" lon="53.1409916"><time>2024-02-04T07:48:03.040</time></trkpt><trkpt lat="56.8342173" lon="53.1410448"><time>2024-02-04T07:48:06.013</time></trkpt><trkpt lat="56.8342061" lon="53.1411373"><time>2024-02-04T07:48:09.040</time></trkpt><trkpt lat="56.8342162" lon="53.1412272"><time>2024-02-04T07:48:12.037</time></trkpt><trkpt lat="56.8342212" lon="53.1413149"><time>2024-02-04T07:48:14.973</time></trkpt><trkpt lat="56.8342211" lon="53.1414049"><time>2024-02-04T07:48:18.023</time></trkpt><trkpt lat="56.8342212" lon="53.1415004"><time>2024-02-04T07:48:21</time></trkpt><trkpt lat="56.8342248" lon="53.1415905"><time>2024-02-04T07:48:23.977</time></trkpt><trkpt lat="56.8342244" lon="53.1416841"><time>2024-02-04T07:48:26.960</time></trkpt><trkpt lat="56.8342353" lon="53.1417755"><time>2024-02-04T07:48:30.010</time></trkpt><trkpt lat="56.8342399" lon="53.1418668"><time>2024-02-04T07:48:33.013</time></trkpt><trkpt lat="56.8342449" lon="53.1419566"><time>2024-02-04T07:48:36.020</time></trkpt><trkpt lat="56.8342463" lon="53.1420488"><time>2024-02-04T07:48:39.003</time></trkpt><trkpt lat="56.8342327" lon="53.1421533"><time>2024-02-04T07:48:42.047</time></trkpt><trkpt lat="56.8342210" lon="53.1421076"><time>2024-02-04T07:48:43.150</time></trkpt><trkpt lat="56.8342179" lon="53.1421303"><time>2024-02-04T07:48:44.090</time></trkpt><trkpt lat="56.8341958" lon="53.1422076"><time>2024-02-04T07:48:48.043</time></trkpt><trkpt lat="56.8341886" lon="53.1422205"><time>2024-02-04T07:48:49.130</time></trkpt><trkpt lat="56.8341526" lon="53.1422841"><time>2024-02-04T07:48:55.040</time></trkpt><trkpt lat="56.8340946" lon="53.1423038"><time>2024-02-04T07:48:59.027</time></trkpt><trkpt lat="56.8340397" lon="53.1423280"><time>2024-02-04T07:49:02.020</time></trkpt><trkpt lat="56.8339871" lon="53.1423467"><time>2024-02-04T07:49:05.017</time></trkpt><trkpt lat="56.8339438" lon="53.1423913"><time>2024-02-04T07:49:08.033</time></trkpt><trkpt lat="56.8339444" lon="53.1424849"><time>2024-02-04T07:49:11.010</time></trkpt><trkpt lat="56.8339361" lon="53.1425866"><time>2024-02-04T07:49:15.013</time></trkpt><trkpt lat="56.8339110" lon="53.1426595"><time>2024-02-04T07:49:17.967</time></trkpt><trkpt lat="56.8338946" lon="53.1427378"><time>2024-02-04T07:49:21.063</time></trkpt><trkpt lat="56.8343838" lon="53.1455842"><time>2024-02-04T07:50:49.990</time></trkpt><trkpt lat="56.8342384" lon="53.1453305"><time>2024-02-04T07:50:52.020</time></trkpt><trkpt lat="56.8342272" lon="53.1453199"><time>2024-02-04T07:50:53.223</time></trkpt><trkpt lat="56.8341216" lon="53.1452049"><time>2024-02-04T07:50:54.963</time></trkpt><trkpt lat="56.8340523" lon="53.1452101"><time>2024-02-04T07:50:56.963</time></trkpt><trkpt lat="56.8340023" lon="53.1452979"><time>2024-02-04T07:50:58.990</time></trkpt><trkpt lat="56.8340023" lon="53.1452979"><time>2024-02-04T07:50:59.010</time></trkpt><trkpt lat="56.8339684" lon="53.1453571"><time>2024-02-04T07:51:04.003</time></trkpt><trkpt lat="56.8339486" lon="53.1453542"><time>2024-02-04T07:51:05.123</time></trkpt><trkpt lat="56.8339000" lon="53.1453957"><time>2024-02-04T07:51:08.960</time></trkpt><trkpt lat="56.8338428" lon="53.1454099"><time>2024-02-04T07:51:12.977</time></trkpt><trkpt lat="56.8337946" lon="53.1454036"><time>2024-02-04T07:51:15.967</time></trkpt><trkpt lat="56.8337415" lon="53.1453970"><time>2024-02-04T07:51:20.007</time></trkpt><trkpt lat="56.8336914" lon="53.1453956"><time>2024-02-04T07:51:22.967</time></trkpt><trkpt lat="56.8336419" lon="53.1453998"><time>2024-02-04T07:51:25.970</time></trkpt><trkpt lat="56.8335810" lon="53.1454205"><time>2024-02-04T07:51:29.970</time></trkpt><trkpt lat="56.8335324" lon="53.1454301"><time>2024-02-04T07:51:32.967</time></trkpt><trkpt lat="56.8334801" lon="53.1454437"><time>2024-02-04T07:51:35.967</time></trkpt><trkpt lat="56.8334208" lon="53.1454984"><time>2024-02-04T07:51:38.963</time></trkpt><trkpt lat="56.8333624" lon="53.1455269"><time>2024-02-04T07:51:41.963</time></trkpt><trkpt lat="56.8333631" lon="53.1454197"><time>2024-02-04T07:51:44.980</time></trkpt><trkpt lat="56.8333536" lon="53.1453061"><time>2024-02-04T07:51:48.957</time></trkpt><trkpt lat="56.8333475" lon="53.1452249"><time>2024-02-04T07:51:50.967</time></trkpt><trkpt lat="56.8333145" lon="53.1451457"><time>2024-02-04T07:51:52.967</time></trkpt><trkpt lat="56.8332649" lon="53.1450975"><time>2024-02-04T07:51:55</time></trkpt><trkpt lat="56.8332099" lon="53.1452542"><time>2024-02-04T07:51:56.117</time></trkpt><trkpt lat="56.8331750" lon="53.1451985"><time>2024-02-04T07:51:57.960</time></trkpt><trkpt lat="56.8331218" lon="53.1451520"><time>2024-02-04T07:52:00.967</time></trkpt><trkpt lat="56.8330783" lon="53.1451296"><time>2024-02-04T07:52:02.973</time></trkpt><trkpt lat="56.8330320" lon="53.1450851"><time>2024-02-04T07:52:04.960</time></trkpt><trkpt lat="56.8329864" lon="53.1450404"><time>2024-02-04T07:52:06.977</time></trkpt><trkpt lat="56.8329317" lon="53.1449953"><time>2024-02-04T07:52:08.973</time></trkpt><trkpt lat="56.8328801" lon="53.1449599"><time>2024-02-04T07:52:10.967</time></trkpt><trkpt lat="56.8328344" lon="53.1449269"><time>2024-02-04T07:52:13.003</time></trkpt><trkpt lat="56.8327867" lon="53.1448909"><time>2024-02-04T07:52:14.977</time></trkpt><trkpt lat="56.8327252" lon="53.1448805"><time>2024-02-04T07:52:17.963</time></trkpt><trkpt lat="56.8326791" lon="53.1448925"><time>2024-02-04T07:52:19.963</time></trkpt><trkpt lat="56.8326316" lon="53.1449087"><time>2024-02-04T07:52:21.967</time></trkpt><trkpt lat="56.8325830" lon="53.1449344"><time>2024-02-04T07:52:23.967</time></trkpt><trkpt lat="56.8325357" lon="53.1449680"><time>2024-02-04T07:52:25.967</time></trkpt><trkpt lat="56.8324862" lon="53.1450180"><time>2024-02-04T07:52:27.957</time></trkpt><trkpt lat="56.8324429" lon="53.1450618"><time>2024-02-04T07:52:29.957</time></trkpt><trkpt lat="56.8324007" lon="53.1450947"><time>2024-02-04T07:52:31.967</time></trkpt><trkpt lat="56.8323504" lon="53.1451235"><time>2024-02-04T07:52:33.963</time></trkpt><trkpt lat="56.8322990" lon="53.1451420"><time>2024-02-04T07:52:36.007</time></trkpt><trkpt lat="56.8322598" lon="53.1450303"><time>2024-02-04T07:52:37.117</time></trkpt><trkpt lat="56.8322108" lon="53.1450432"><time>2024-02-04T07:52:38.970</time></trkpt><trkpt lat="56.8321623" lon="53.1450647"><time>2024-02-04T07:52:40.960</time></trkpt><trkpt lat="56.8321028" lon="53.1450829"><time>2024-02-04T07:52:44.007</time></trkpt><trkpt lat="56.8320485" lon="53.1451052"><time>2024-02-04T07:52:46.963</time></trkpt><trkpt lat="56.8320009" lon="53.1451005"><time>2024-02-04T07:52:48.973</time></trkpt><trkpt lat="56.8319551" lon="53.1451111"><time>2024-02-04T07:52:50.967</time></trkpt><trkpt lat="56.8318935" lon="53.1451232"><time>2024-02-04T07:52:53.967</time></trkpt><trkpt lat="56.8318303" lon="53.1451480"><time>2024-02-04T07:52:57.013</time></trkpt><trkpt lat="56.8317823" lon="53.1451743"><time>2024-02-04T07:52:59.033</time></trkpt><trkpt lat="56.8317898" lon="53.1451771"><time>2024-02-04T07:53:00.117</time></trkpt><trkpt lat="56.8317459" lon="53.1452186"><time>2024-02-04T07:53:02.103</time></trkpt><trkpt lat="56.8316995" lon="53.1452616"><time>2024-02-04T07:53:03.007</time></trkpt><trkpt lat="56.8316567" lon="53.1452995"><time>2024-02-04T07:53:05.027</time></trkpt><trkpt lat="56.8316118" lon="53.1453219"><time>2024-02-04T07:53:07.013</time></trkpt><trkpt lat="56.8315538" lon="53.1453426"><time>2024-02-04T07:53:10.037</time></trkpt><trkpt lat="56.8315063" lon="53.1453596"><time>2024-02-04T07:53:13.030</time></trkpt><trkpt lat="56.8314929" lon="53.1454540"><time>2024-02-04T07:53:16.963</time></trkpt><trkpt lat="56.8315054" lon="53.1455362"><time>2024-02-04T07:53:19.970</time></trkpt><trkpt lat="56.8315054" lon="53.1455362"><time>2024-02-04T07:53:20.023</time></trkpt><trkpt lat="56.8315070" lon="53.1456306"><time>2024-02-04T07:53:23.993</time></trkpt><trkpt lat="56.8315170" lon="53.1456390"><time>2024-02-04T07:53:25.107</time></trkpt><trkpt lat="56.8314993" lon="53.1457169"><time>2024-02-04T07:53:47.027</time></trkpt><trkpt lat="56.8314603" lon="53.1457751"><time>2024-02-04T07:53:51.050</time></trkpt><trkpt lat="56.8314036" lon="53.1457933"><time>2024-02-04T07:53:53.017</time></trkpt><trkpt lat="56.8313537" lon="53.1457900"><time>2024-02-04T07:53:54.997</time></trkpt><trkpt lat="56.8312872" lon="53.1458052"><time>2024-02-04T07:53:57.990</time></trkpt><trkpt lat="56.8312288" lon="53.1458173"><time>2024-02-04T07:54:00.997</time></trkpt><trkpt lat="56.8311796" lon="53.1458745"><time>2024-02-04T07:54:03.990</time></trkpt><trkpt lat="56.8311594" lon="53.1459477"><time>2024-02-04T07:54:05.997</time></trkpt><trkpt lat="56.8311514" lon="53.1460532"><time>2024-02-04T07:54:08.993</time></trkpt><trkpt lat="56.8311378" lon="53.1461496"><time>2024-02-04T07:54:11.987</time></trkpt><trkpt lat="56.8310861" lon="53.1462166"><time>2024-02-04T07:54:15.027</time></trkpt><trkpt lat="56.8310327" lon="53.1462410"><time>2024-02-04T07:54:17</time></trkpt><trkpt lat="56.8309657" lon="53.1462854"><time>2024-02-04T07:54:19.047</time></trkpt><trkpt lat="56.8309122" lon="53.1463677"><time>2024-02-04T07:54:21.003</time></trkpt><trkpt lat="56.8309120" lon="53.1464602"><time>2024-02-04T07:54:23.007</time></trkpt><trkpt lat="56.8309208" lon="53.1465776"><time>2024-02-04T07:54:26.017</time></trkpt><trkpt lat="56.8309056" lon="53.1466979"><time>2024-02-04T07:54:28.967</time></trkpt><trkpt lat="56.8284904" lon="53.1474050"><time>2024-02-04T07:57:46.003</time></trkpt><trkpt lat="56.8284529" lon="53.1474111"><time>2024-02-04T07:57:47.107</time></trkpt><trkpt lat="56.8284114" lon="53.1474744"><time>2024-02-04T07:57:49.003</time></trkpt><trkpt lat="56.8284070" lon="53.1474941"><time>2024-02-04T07:57:50.113</time></trkpt><trkpt lat="56.8283350" lon="53.1475452"><time>2024-02-04T07:57:51.960</time></trkpt><trkpt lat="56.8282942" lon="53.1475845"><time>2024-02-04T07:57:52.967</time></trkpt><trkpt lat="56.8282513" lon="53.1476477"><time>2024-02-04T07:57:56.030</time></trkpt><trkpt lat="56.8281873" lon="53.1476685"><time>2024-02-04T07:57:59</time></trkpt><trkpt lat="56.8281406" lon="53.1476631"><time>2024-02-04T07:58:01.007</time></trkpt><trkpt lat="56.8280912" lon="53.1476891"><time>2024-02-04T07:58:03.987</time></trkpt><trkpt lat="56.8280372" lon="53.1477041"><time>2024-02-04T07:58:07.007</time></trkpt><trkpt lat="56.8279812" lon="53.1477056"><time>2024-02-04T07:58:10.033</time></trkpt><trkpt lat="56.8279253" lon="53.1477495"><time>2024-02-04T07:58:12.963</time></trkpt><trkpt lat="56.8278797" lon="53.1476973"><time>2024-02-04T07:58:16</time></trkpt><trkpt lat="56.8278742" lon="53.1476952"><time>2024-02-04T07:58:17.133</time></trkpt><trkpt lat="56.8278707" lon="53.1475830"><time>2024-02-04T07:58:20.967</time></trkpt><trkpt lat="56.8278635" lon="53.1474850"><time>2024-02-04T07:58:23.963</time></trkpt><trkpt lat="56.8278347" lon="53.1474156"><time>2024-02-04T07:58:26.973</time></trkpt><trkpt lat="56.8277810" lon="53.1473726"><time>2024-02-04T07:58:30.970</time></trkpt><trkpt lat="56.8277346" lon="53.1473565"><time>2024-02-04T07:58:33.980</time></trkpt><trkpt lat="56.8276756" lon="53.1473755"><time>2024-02-04T07:58:38.007</time></trkpt><trkpt lat="56.8276756" lon="53.1473755"><time>2024-02-04T07:58:38.027</time></trkpt><trkpt lat="56.8276298" lon="53.1473790"><time>2024-02-04T07:58:40.993</time></trkpt><trkpt lat="56.8276089" lon="53.1474197"><time>2024-02-04T07:58:42.120</time></trkpt><trkpt lat="56.8275612" lon="53.1474154"><time>2024-02-04T07:58:46.013</time></trkpt><trkpt lat="56.8275436" lon="53.1473330"><time>2024-02-04T07:58:51.017</time></trkpt><trkpt lat="56.8275351" lon="53.1472347"><time>2024-02-04T07:58:54</time></trkpt><trkpt lat="56.8275139" lon="53.1471605"><time>2024-02-04T07:58:56.970</time></trkpt><trkpt lat="56.8275081" lon="53.1470522"><time>2024-02-04T07:59:01.023</time></trkpt><trkpt lat="56.8275029" lon="53.1469547"><time>2024-02-04T07:59:04.013</time></trkpt><trkpt lat="56.8274939" lon="53.1468546"><time>2024-02-04T07:59:07.013</time></trkpt><trkpt lat="56.8274803" lon="53.1467552"><time>2024-02-04T07:59:10.010</time></trkpt><trkpt lat="56.8274835" lon="53.1466493"><time>2024-02-04T07:59:13.040</time></trkpt><trkpt lat="56.8274764" lon="53.1465402"><time>2024-02-04T07:59:16.027</time></trkpt><trkpt lat="56.8274422" lon="53.1464503"><time>2024-02-04T07:59:18.997</time></trkpt><trkpt lat="56.8274006" lon="53.1463577"><time>2024-02-04T07:59:22.037</time></trkpt><trkpt lat="56.8273435" lon="53.1463003"><time>2024-02-04T07:59:24.997</time></trkpt><trkpt lat="56.8272942" lon="53.1462577"><time>2024-02-04T07:59:28.027</time></trkpt><trkpt lat="56.8272513" lon="53.1462042"><time>2024-02-04T07:59:31.960</time></trkpt><trkpt lat="56.8272489" lon="53.1461216"><time>2024-02-04T07:59:35</time></trkpt><trkpt lat="56.8272587" lon="53.1460229"><time>2024-02-04T07:59:37.973</time></trkpt><trkpt lat="56.8272859" lon="53.1459389"><time>2024-02-04T07:59:40.977</time></trkpt><trkpt lat="56.8273432" lon="53.1459141"><time>2024-02-04T07:59:44.030</time></trkpt><trkpt lat="56.8273921" lon="53.1458816"><time>2024-02-04T07:59:47.003</time></trkpt><trkpt lat="56.8274329" lon="53.1458303"><time>2024-02-04T07:59:49.967</time></trkpt><trkpt lat="56.8274763" lon="53.1457917"><time>2024-02-04T07:59:53.040</time></trkpt><trkpt lat="56.8275196" lon="53.1457605"><time>2024-02-04T07:59:56.053</time></trkpt><trkpt lat="56.8275388" lon="53.1456787"><time>2024-02-04T07:59:58.980</time></trkpt><trkpt lat="56.8275401" lon="53.1455934"><time>2024-02-04T08:00:02.043</time></trkpt><trkpt lat="56.8275402" lon="53.1454863"><time>2024-02-04T08:00:06.030</time></trkpt><trkpt lat="56.8275131" lon="53.1453951"><time>2024-02-04T08:00:10.030</time></trkpt><trkpt lat="56.8274981" lon="53.1453140"><time>2024-02-04T08:00:13.003</time></trkpt><trkpt lat="56.8274878" lon="53.1452305"><time>2024-02-04T08:00:16.040</time></trkpt><trkpt lat="56.8274796" lon="53.1451423"><time>2024-02-04T08:00:19.043</time></trkpt><trkpt lat="56.8274705" lon="53.1450482"><time>2024-02-04T08:00:21.997</time></trkpt><trkpt lat="56.8274580" lon="53.1449580"><time>2024-02-04T08:00:25.003</time></trkpt><trkpt lat="56.8274488" lon="53.1448541"><time>2024-02-04T08:00:29.023</time></trkpt><trkpt lat="56.8274370" lon="53.1447516"><time>2024-02-04T08:00:33.050</time></trkpt><trkpt lat="56.8274298" lon="53.1446661"><time>2024-02-04T08:00:36.037</time></trkpt><trkpt lat="56.8274255" lon="53.1445797"><time>2024-02-04T08:00:38.977</time></trkpt><trkpt lat="56.8274210" lon="53.1444896"><time>2024-02-04T08:00:41.977</time></trkpt><trkpt lat="56.8274121" lon="53.1444036"><time>2024-02-04T08:00:45.033</time></trkpt><trkpt lat="56.8274066" lon="53.1443182"><time>2024-02-04T08:00:48.037</time></trkpt><trkpt lat="56.8273970" lon="53.1442318"><time>2024-02-04T08:00:51.040</time></trkpt><trkpt lat="56.8273904" lon="53.1441378"><time>2024-02-04T08:00:54.023</time></trkpt><trkpt lat="56.8273869" lon="53.1440362"><time>2024-02-04T08:00:56.983</time></trkpt><trkpt lat="56.8273848" lon="53.1439355"><time>2024-02-04T08:01:00.030</time></trkpt><trkpt lat="56.8273801" lon="53.1438503"><time>2024-02-04T08:01:03.027</time></trkpt><trkpt lat="56.8275813" lon="53.1405131"><time>2024-02-04T08:02:53.997</time></trkpt><trkpt lat="56.8275813" lon="53.1405131"><time>2024-02-04T08:02:54.027</time></trkpt><trkpt lat="56.8275916" lon="53.1405727"><time>2024-02-04T08:02:55.103</time></trkpt><trkpt lat="56.8275828" lon="53.1405547"><time>2024-02-04T08:02:56.267</time></trkpt><trkpt lat="56.8275948" lon="53.1404710"><time>2024-02-04T08:02:58.960</time></trkpt><trkpt lat="56.8276039" lon="53.1403722"><time>2024-02-04T08:03:02.980</time></trkpt><trkpt lat="56.8276158" lon="53.1402539"><time>2024-02-04T08:03:06.017</time></trkpt><trkpt lat="56.8276232" lon="53.1401456"><time>2024-02-04T08:03:08.037</time></trkpt><trkpt lat="56.8276281" lon="53.1400435"><time>2024-02-04T08:03:09.997</time></trkpt><trkpt lat="56.8276293" lon="53.1399065"><time>2024-02-04T08:03:12.997</time></trkpt><trkpt lat="56.8276278" lon="53.1398147"><time>2024-02-04T08:03:15.003</time></trkpt><trkpt lat="56.8276217" lon="53.1397223"><time>2024-02-04T08:03:17.013</time></trkpt><trkpt lat="56.8276076" lon="53.1396010"><time>2024-02-04T08:03:20.023</time></trkpt><trkpt lat="56.8275993" lon="53.1394999"><time>2024-02-04T08:03:22.013</time></trkpt><trkpt lat="56.8275919" lon="53.1394059"><time>2024-02-04T08:03:24.013</time></trkpt><trkpt lat="56.8275838" lon="53.1392929"><time>2024-02-04T08:03:26.017</time></trkpt><trkpt lat="56.8275757" lon="53.1391819"><time>2024-02-04T08:03:28.017</time></trkpt><trkpt lat="56.8275643" lon="53.1390791"><time>2024-02-04T08:03:30.020</time></trkpt><trkpt lat="56.8275583" lon="53.1389954"><time>2024-02-04T08:03:32.017</time></trkpt><trkpt lat="56.8275481" lon="53.1388943"><time>2024-02-04T08:03:34.013</time></trkpt><trkpt lat="56.8275454" lon="53.1387913"><time>2024-02-04T08:03:36.010</time></trkpt><trkpt lat="56.8275439" lon="53.1386986"><time>2024-02-04T08:03:37.997</time></trkpt><trkpt lat="56.8275388" lon="53.1385954"><time>2024-02-04T08:03:40</time></trkpt><trkpt lat="56.8275407" lon="53.1384909"><time>2024-02-04T08:03:41.967</time></trkpt><trkpt lat="56.8275462" lon="53.1384080"><time>2024-02-04T08:03:43.973</time></trkpt><trkpt lat="56.8275321" lon="53.1382856"><time>2024-02-04T08:03:49.010</time></trkpt><trkpt lat="56.8275354" lon="53.1381610"><time>2024-02-04T08:03:53.023</time></trkpt><trkpt lat="56.8275365" lon="53.1380567"><time>2024-02-04T08:03:55.003</time></trkpt><trkpt lat="56.8275121" lon="53.1379817"><time>2024-02-04T08:03:57.017</time></trkpt><trkpt lat="56.8274669" lon="53.1379556"><time>2024-02-04T08:03:59.003</time></trkpt><trkpt lat="56.8274283" lon="53.1379099"><time>2024-02-04T08:04:00.997</time></trkpt><trkpt lat="56.8273830" lon="53.1379061"><time>2024-02-04T08:04:03.020</time></trkpt><trkpt lat="56.8273294" lon="53.1379060"><time>2024-02-04T08:04:06.017</time></trkpt><trkpt lat="56.8272611" lon="53.1379308"><time>2024-02-04T08:04:09.007</time></trkpt><trkpt lat="56.8272148" lon="53.1379490"><time>2024-02-04T08:04:11.013</time></trkpt><trkpt lat="56.8271651" lon="53.1379739"><time>2024-02-04T08:04:12.997</time></trkpt><trkpt lat="56.8271032" lon="53.1379878"><time>2024-02-04T08:04:15.020</time></trkpt><trkpt lat="56.8270483" lon="53.1379949"><time>2024-02-04T08:04:17.010</time></trkpt><trkpt lat="56.8269900" lon="53.1379965"><time>2024-02-04T08:04:19.003</time></trkpt><trkpt lat="56.8269216" lon="53.1380084"><time>2024-02-04T08:04:20.997</time></trkpt><trkpt lat="56.8268556" lon="53.1380191"><time>2024-02-04T08:04:23.007</time></trkpt><trkpt lat="56.8268014" lon="53.1380524"><time>2024-02-04T08:04:25.010</time></trkpt><trkpt lat="56.8267397" lon="53.1380743"><time>2024-02-04T08:04:27.007</time></trkpt><trkpt lat="56.8266882" lon="53.1380817"><time>2024-02-04T08:04:29.017</time></trkpt><trkpt lat="56.8266623" lon="53.1379925"><time>2024-02-04T08:04:33.033</time></trkpt><trkpt lat="56.8266712" lon="53.1379105"><time>2024-02-04T08:04:35.003</time></trkpt><trkpt lat="56.8266781" lon="53.1378042"><time>2024-02-04T08:04:37</time></trkpt><trkpt lat="56.8266865" lon="53.1377209"><time>2024-02-04T08:04:38.997</time></trkpt><trkpt lat="56.8266912" lon="53.1376338"><time>2024-02-04T08:04:41.973</time></trkpt><trkpt lat="56.8266747" lon="53.1375470"><time>2024-02-04T08:04:46.030</time></trkpt><trkpt lat="56.8266152" lon="53.1375416"><time>2024-02-04T08:04:49.043</time></trkpt><trkpt lat="56.8265701" lon="53.1375619"><time>2024-02-04T08:04:51.027</time></trkpt><trkpt lat="56.8265064" lon="53.1375820"><time>2024-02-04T08:04:54.037</time></trkpt><trkpt lat="56.8264618" lon="53.1375346"><time>2024-02-04T08:04:57.013</time></trkpt><trkpt lat="56.8264305" lon="53.1374547"><time>2024-02-04T08:05:00.023</time></trkpt><trkpt lat="56.8264113" lon="53.1373448"><time>2024-02-04T08:05:03.047</time></trkpt><trkpt lat="56.8251423" lon="53.1371409"><time>2024-02-04T08:06:38.007</time></trkpt><trkpt lat="56.8251037" lon="53.1371184"><time>2024-02-04T08:06:39.130</time></trkpt><trkpt lat="56.8250542" lon="53.1371748"><time>2024-02-04T08:06:42.967</time></trkpt><trkpt lat="56.8250072" lon="53.1372230"><time>2024-02-04T08:06:45.993</time></trkpt><trkpt lat="56.8249596" lon="53.1372881"><time>2024-02-04T08:06:49.007</time></trkpt><trkpt lat="56.8249228" lon="53.1373489"><time>2024-02-04T08:06:52.040</time></trkpt><trkpt lat="56.8248849" lon="53.1374145"><time>2024-02-04T08:06:55.030</time></trkpt><trkpt lat="56.8248613" lon="53.1374308"><time>2024-02-04T08:06:56.117</time></trkpt><trkpt lat="56.8248335" lon="53.1374989"><time>2024-02-04T08:07:00.033</time></trkpt><trkpt lat="56.8247827" lon="53.1375547"><time>2024-02-04T08:07:04.017</time></trkpt><trkpt lat="56.8247255" lon="53.1376054"><time>2024-02-04T08:07:08.010</time></trkpt><trkpt lat="56.8246839" lon="53.1376725"><time>2024-02-04T08:07:11.023</time></trkpt><trkpt lat="56.8246491" lon="53.1377597"><time>2024-02-04T08:07:15.027</time></trkpt><trkpt lat="56.8246184" lon="53.1378284"><time>2024-02-04T08:07:19.023</time></trkpt><trkpt lat="56.8245812" lon="53.1378767"><time>2024-02-04T08:07:21.997</time></trkpt><trkpt lat="56.8245415" lon="53.1379298"><time>2024-02-04T08:07:25</time></trkpt><trkpt lat="56.8244987" lon="53.1379831"><time>2024-02-04T08:07:28.993</time></trkpt><trkpt lat="56.8244701" lon="53.1379981"><time>2024-02-04T08:07:30.077</time></trkpt><trkpt lat="56.8244351" lon="53.1380653"><time>2024-02-04T08:07:35.997</time></trkpt><trkpt lat="56.8244160" lon="53.1381586"><time>2024-02-04T08:07:39.013</time></trkpt><trkpt lat="56.8243720" lon="53.1382366"><time>2024-02-04T08:07:40.963</time></trkpt><trkpt lat="56.8243404" lon="53.1383041"><time>2024-02-04T08:07:44.980</time></trkpt><trkpt lat="56.8243003" lon="53.1383624"><time>2024-02-04T08:07:47.977</time></trkpt><trkpt lat="56.8242549" lon="53.1384044"><time>2024-02-04T08:07:50.997</time></trkpt><trkpt lat="56.8242549" lon="53.1384044"><time>2024-02-04T08:07:51.023</time></trkpt><trkpt lat="56.8242073" lon="53.1384511"><time>2024-02-04T08:07:54.013</time></trkpt><trkpt lat="56.8242153" lon="53.1384445"><time>2024-02-04T08:07:55.123</time></trkpt><trkpt lat="56.8242581" lon="53.1383655"><time>2024-02-04T08:08:00.997</time></trkpt><trkpt lat="56.8242942" lon="53.1382761"><time>2024-02-04T08:08:05.013</time></trkpt><trkpt lat="56.8243322" lon="53.1382168"><time>2024-02-04T08:08:07.030</time></trkpt><trkpt lat="56.8243874" lon="53.1381484"><time>2024-02-04T08:08:09.017</time></trkpt><trkpt lat="56.8244269" lon="53.1380890"><time>2024-02-04T08:08:11.037</time></trkpt><trkpt lat="56.8244808" lon="53.1380238"><time>2024-02-04T08:08:14.007</time></trkpt><trkpt lat="56.8245178" lon="53.1379578"><time>2024-02-04T08:08:15.973</time></trkpt><trkpt lat="56.8245597" lon="53.1378750"><time>2024-02-04T08:08:17.997</time></trkpt><trkpt lat="56.8245998" lon="53.1378088"><time>2024-02-04T08:08:19.977</time></trkpt><trkpt lat="56.8246370" lon="53.1377420"><time>2024-02-04T08:08:21.997</time></trkpt><trkpt lat="56.8246872" lon="53.1376808"><time>2024-02-04T08:08:24.027</time></trkpt><trkpt lat="56.8247424" lon="53.1376200"><time>2024-02-04T08:08:26.027</time></trkpt><trkpt lat="56.8247939" lon="53.1375567"><time>2024-02-04T08:08:28.977</time></trkpt><trkpt lat="56.8248308" lon="53.1374822"><time>2024-02-04T08:08:31.990</time></trkpt><trkpt lat="56.8248594" lon="53.1374079"><time>2024-02-04T08:08:35.007</time></trkpt><trkpt lat="56.8248828" lon="53.1373127"><time>2024-02-04T08:08:38.013</time></trkpt><trkpt lat="56.8248756" lon="53.1372294"><time>2024-02-04T08:08:40.973</time></trkpt><trkpt lat="56.8248696" lon="53.1371232"><time>2024-02-04T08:08:45.080</time></trkpt><trkpt lat="56.8248715" lon="53.1370187"><time>2024-02-04T08:08:49.007</time></trkpt><trkpt lat="56.8248580" lon="53.1369153"><time>2024-02-04T08:08:53.010</time></trkpt><trkpt lat="56.8248449" lon="53.1368203"><time>2024-02-04T08:08:57.023</time></trkpt><trkpt lat="56.8248320" lon="53.1367393"><time>2024-02-04T08:09:00.033</time></trkpt><trkpt lat="56.8248082" lon="53.1366561"><time>2024-02-04T08:09:03.007</time></trkpt><trkpt lat="56.8247890" lon="53.1365808"><time>2024-02-04T08:09:06.037</time></trkpt><trkpt lat="56.8247664" lon="53.1364779"><time>2024-02-04T08:09:10.037</time></trkpt><trkpt lat="56.8247475" lon="53.1364005"><time>2024-02-04T08:09:12.973</time></trkpt><trkpt lat="56.8247199" lon="53.1363075"><time>2024-02-04T08:09:17.047</time></trkpt><trkpt lat="56.8246788" lon="53.1362124"><time>2024-02-04T08:09:20.003</time></trkpt><trkpt lat="56.8246525" lon="53.1361377"><time>2024-02-04T08:09:23.007</time></trkpt><trkpt lat="56.8246228" lon="53.1360490"><time>2024-02-04T08:09:26.963</time></trkpt><trkpt lat="56.8245995" lon="53.1359707"><time>2024-02-04T08:09:30.007</time></trkpt><trkpt lat="56.8245768" lon="53.1358862"><time>2024-02-04T08:09:33.023</time></trkpt><trkpt lat="56.8245536" lon="53.1358130"><time>2024-02-04T08:09:36</time></trkpt><trkpt lat="56.8245289" lon="53.1357426"><time>2024-02-04T08:09:38.983</time></trkpt><trkpt lat="56.8244891" lon="53.1356692"><time>2024-02-04T08:09:42.973</time></trkpt><trkpt lat="56.8244544" lon="53.1355868"><time>2024-02-04T08:09:47.020</time></trkpt><trkpt lat="56.8244241" lon="53.1355227"><time>2024-02-04T08:09:50.020</time></trkpt><trkpt lat="56.8233946" lon="53.1320269"><time>2024-02-04T08:11:57.987</time></trkpt><trkpt lat="56.8233502" lon="53.1321671"><time>2024-02-04T08:11:59.097</time></trkpt><trkpt lat="56.8233209" lon="53.1321029"><time>2024-02-04T08:12:00.960</time></trkpt><trkpt lat="56.8232996" lon="53.1320238"><time>2024-02-04T08:12:05.970</time></trkpt><trkpt lat="56.8232781" lon="53.1319431"><time>2024-02-04T08:12:09.977</time></trkpt><trkpt lat="56.8232475" lon="53.1318831"><time>2024-02-04T08:12:13.973</time></trkpt><trkpt lat="56.8232189" lon="53.1318050"><time>2024-02-04T08:12:18.967</time></trkpt></trkseg></trk></gpx>